Time,TemperatureF,DewpointF,PressureIn,WindDirection,WindDirectionDegrees,WindSpeedMPH,WindSpeedGustMPH,Humidity,HourlyPrecipIn,Conditions,Clouds,dailyrainin,SoftwareType,DateUTC
2013-03-04 00:01:00,36.0,33.0,30.19,WNW,287,0.0,0.0,90,0.00,,,0.00,,2013-03-04 05:01:00,
2013-03-04 00:11:00,36.0,33.0,30.19,WNW,287,0.0,0.0,90,0.00,,,0.00,,2013-03-04 05:11:00,
2013-03-04 00:22:00,35.0,33.0,30.19,WNW,287,0.0,0.0,91,0.00,,,0.00,,2013-03-04 05:22:00,
2013-03-04 00:32:00,35.0,33.0,30.20,WNW,287,0.0,0.0,92,0.00,,,0.00,,2013-03-04 05:32:00,
2013-03-04 00:42:00,35.0,33.0,30.20,WNW,287,0.0,0.0,92,0.00,,,0.00,,2013-03-04 05:42:00,
2013-03-04 00:52:00,35.0,33.0,30.20,WNW,287,0.0,0.0,92,0.00,,,0.00,,2013-03-04 05:52:00,
2013-03-04 01:02:00,35.0,33.0,30.20,WNW,287,0.0,0.0,93,0.00,,,0.00,,2013-03-04 06:02:00,
2013-03-04 01:11:00,35.0,33.0,30.20,WNW,287,0.0,0.0,93,0.00,,,0.00,,2013-03-04 06:11:00,
2013-03-04 01:22:00,34.0,32.0,30.19,WNW,287,0.0,0.0,93,0.00,,,0.00,,2013-03-04 06:22:00,
2013-03-04 01:32:00,35.0,33.0,30.19,WNW,291,0.0,2.0,94,0.00,,,0.00,,2013-03-04 06:32:00,
2013-03-04 01:42:00,35.0,33.0,30.19,WNW,291,0.0,2.0,94,0.00,,,0.00,,2013-03-04 06:42:00,
2013-03-04 01:51:00,36.0,34.0,30.19,WNW,291,0.0,0.0,94,0.00,,,0.00,,2013-03-04 06:51:00,
2013-03-04 02:02:00,37.0,35.0,30.19,WNW,291,0.0,0.0,93,0.00,,,0.00,,2013-03-04 07:02:00,
2013-03-04 02:11:00,37.0,35.0,30.19,WNW,291,0.0,0.0,93,0.00,,,0.00,,2013-03-04 07:11:00,
2013-03-04 02:22:00,36.0,34.0,30.18,WNW,291,0.0,0.0,93,0.00,,,0.00,,2013-03-04 07:22:00,
2013-03-04 02:32:00,37.0,35.0,30.18,WNW,291,0.0,0.0,93,0.00,,,0.00,,2013-03-04 07:32:00,
2013-03-04 02:42:00,37.0,35.0,30.18,WNW,291,0.0,0.0,93,0.00,,,0.00,,2013-03-04 07:42:00,
2013-03-04 02:52:00,37.0,35.0,30.18,WNW,291,0.0,0.0,92,0.00,,,0.00,,2013-03-04 07:52:00,
2013-03-04 03:02:00,37.0,35.0,30.19,NNE,22,0.0,3.0,93,0.00,,,0.00,,2013-03-04 08:02:00,
2013-03-04 03:12:00,37.0,35.0,30.19,NNE,22,0.0,3.0,93,0.00,,,0.00,,2013-03-04 08:12:00,
2013-03-04 03:22:00,37.0,35.0,30.17,NE,34,0.0,2.0,93,0.00,,,0.00,,2013-03-04 08:22:00,
2013-03-04 03:32:00,37.0,35.0,30.17,NE,34,0.0,2.0,93,0.00,,,0.00,,2013-03-04 08:32:00,
2013-03-04 03:42:00,37.0,35.0,30.17,NE,34,0.0,2.0,93,0.00,,,0.00,,2013-03-04 08:42:00,
2013-03-04 03:52:00,36.0,34.0,30.17,NE,34,0.0,1.0,94,0.00,,,0.00,,2013-03-04 08:52:00,
2013-03-04 04:02:00,35.0,33.0,30.17,NE,34,0.0,0.0,94,0.00,,,0.00,,2013-03-04 09:02:00,
2013-03-04 04:11:00,35.0,33.0,30.17,NE,34,0.0,0.0,94,0.00,,,0.00,,2013-03-04 09:11:00,
2013-03-04 04:22:00,35.0,33.0,30.17,NE,34,0.0,0.0,94,0.00,,,0.00,,2013-03-04 09:22:00,
2013-03-04 04:32:00,34.0,32.0,30.17,NE,34,0.0,1.0,94,0.00,,,0.00,,2013-03-04 09:32:00,
2013-03-04 04:42:00,34.0,32.0,30.17,NE,34,0.0,1.0,94,0.00,,,0.00,,2013-03-04 09:42:00,
2013-03-04 04:52:00,34.0,32.0,30.17,NE,34,1.0,2.0,94,0.00,,,0.00,,2013-03-04 09:52:00,
2013-03-04 05:01:00,35.0,33.0,30.18,NE,34,0.0,1.0,94,0.00,,,0.00,,2013-03-04 10:01:00,
2013-03-04 05:12:00,35.0,33.0,30.18,NE,34,0.0,1.0,94,0.00,,,0.00,,2013-03-04 10:12:00,
2013-03-04 05:22:00,34.0,32.0,30.18,NE,34,0.0,1.0,93,0.00,,,0.00,,2013-03-04 10:22:00,
2013-03-04 05:32:00,34.0,32.0,30.19,NE,34,0.0,1.0,94,0.00,,,0.00,,2013-03-04 10:32:00,
2013-03-04 05:42:00,34.0,32.0,30.19,NE,34,0.0,1.0,94,0.00,,,0.00,,2013-03-04 10:42:00,
2013-03-04 05:52:00,34.0,32.0,30.19,NE,34,0.0,1.0,94,0.00,,,0.00,,2013-03-04 10:52:00,
2013-03-04 06:02:00,34.0,32.0,30.19,NE,34,0.0,0.0,94,0.00,,,0.00,,2013-03-04 11:02:00,
2013-03-04 06:11:00,34.0,32.0,30.19,NE,34,0.0,0.0,94,0.00,,,0.00,,2013-03-04 11:11:00,
2013-03-04 06:22:00,34.0,32.0,30.20,NE,34,0.0,0.0,93,0.00,,,0.00,,2013-03-04 11:22:00,
2013-03-04 06:32:00,33.0,31.0,30.20,NE,34,0.0,1.0,94,0.00,,,0.00,,2013-03-04 11:32:00,
2013-03-04 06:42:00,33.0,31.0,30.20,NE,34,0.0,1.0,94,0.00,,,0.00,,2013-03-04 11:42:00,
2013-03-04 06:52:00,33.0,31.0,30.21,NE,34,0.0,0.0,94,0.00,,,0.00,,2013-03-04 11:52:00,
2013-03-04 07:02:00,33.0,31.0,30.22,NE,34,0.0,0.0,94,0.00,,,0.00,,2013-03-04 12:02:00,
2013-03-04 07:12:00,33.0,31.0,30.22,NE,34,0.0,0.0,94,0.00,,,0.00,,2013-03-04 12:12:00,
2013-03-04 07:22:00,33.0,31.0,30.23,NE,34,0.0,0.0,94,0.00,,,0.00,,2013-03-04 12:22:00,
2013-03-04 07:32:00,32.0,30.0,30.23,NE,34,0.0,1.0,94,0.00,,,0.00,,2013-03-04 12:32:00,
2013-03-04 07:42:00,32.0,30.0,30.23,NE,34,0.0,1.0,94,0.00,,,0.00,,2013-03-04 12:42:00,
2013-03-04 07:52:00,33.0,32.0,30.22,NNE,20,1.0,3.0,95,0.00,,,0.00,,2013-03-04 12:52:00,
2013-03-04 08:02:00,37.0,35.0,30.23,NNE,20,0.0,3.0,92,0.00,,,0.00,,2013-03-04 13:02:00,
2013-03-04 08:11:00,37.0,35.0,30.23,NNE,20,0.0,3.0,92,0.00,,,0.00,,2013-03-04 13:11:00,
2013-03-04 08:22:00,40.0,35.0,30.24,NNE,28,0.0,3.0,82,0.00,,,0.00,,2013-03-04 13:22:00,
2013-03-04 08:32:00,43.0,34.0,30.25,NNE,15,1.0,5.0,71,0.00,,,0.00,,2013-03-04 13:32:00,
2013-03-04 08:42:00,43.0,34.0,30.25,NNE,15,1.0,5.0,71,0.00,,,0.00,,2013-03-04 13:42:00,
2013-03-04 08:52:00,45.0,34.0,30.26,North,360,1.0,6.0,64,0.00,,,0.00,,2013-03-04 13:52:00,
2013-03-04 09:01:00,47.0,32.0,30.27,NNE,16,3.0,9.0,56,0.00,,,0.00,,2013-03-04 14:01:00,
2013-03-04 09:12:00,47.0,32.0,30.27,NNE,16,3.0,9.0,56,0.00,,,0.00,,2013-03-04 14:12:00,
2013-03-04 09:22:00,48.0,32.0,30.27,NNE,13,2.0,7.0,53,0.00,,,0.00,,2013-03-04 14:22:00,
2013-03-04 09:32:00,49.0,30.0,30.27,North,5,2.0,10.0,48,0.00,,,0.00,,2013-03-04 14:32:00,
2013-03-04 09:42:00,49.0,30.0,30.27,North,5,2.0,10.0,48,0.00,,,0.00,,2013-03-04 14:42:00,
2013-03-04 09:52:00,50.0,31.0,30.27,North,349,4.0,8.0,47,0.00,,,0.00,,2013-03-04 14:52:00,
2013-03-04 10:02:00,52.0,31.0,30.26,NW,319,4.0,8.0,44,0.00,,,0.00,,2013-03-04 15:02:00,
2013-03-04 10:11:00,52.0,31.0,30.26,NW,319,4.0,8.0,44,0.00,,,0.00,,2013-03-04 15:11:00,
2013-03-04 10:22:00,52.0,29.0,30.25,NE,53,6.0,13.0,41,0.00,,,0.00,,2013-03-04 15:22:00,
2013-03-04 10:32:00,53.0,29.0,30.25,NNW,332,5.0,10.0,40,0.00,,,0.00,,2013-03-04 15:32:00,
2013-03-04 10:42:00,53.0,29.0,30.25,NNW,332,5.0,10.0,40,0.00,,,0.00,,2013-03-04 15:42:00,
2013-03-04 10:52:00,55.0,31.0,30.25,NW,319,5.0,11.0,39,0.00,,,0.00,,2013-03-04 15:52:00,
2013-03-04 11:03:00,56.0,29.0,30.24,NNE,25,5.0,11.0,36,0.00,,,0.00,,2013-03-04 16:03:00,
2013-03-04 11:11:00,56.0,29.0,30.24,NNE,25,5.0,11.0,36,0.00,,,0.00,,2013-03-04 16:11:00,
2013-03-04 11:21:00,56.0,29.0,30.23,ENE,68,3.0,12.0,36,0.00,,,0.00,,2013-03-04 16:21:00,
2013-03-04 11:32:00,58.0,31.0,30.24,NNW,344,3.0,9.0,36,0.00,,,0.00,,2013-03-04 16:32:00,
2013-03-04 11:42:00,58.0,31.0,30.24,NNW,344,3.0,9.0,36,0.00,,,0.00,,2013-03-04 16:42:00,
2013-03-04 11:52:00,57.0,28.0,30.24,NNW,340,3.0,9.0,33,0.00,,,0.00,,2013-03-04 16:52:00,
2013-03-04 12:02:00,59.0,28.0,30.23,ESE,103,4.0,10.0,31,0.00,,,0.00,,2013-03-04 17:02:00,
2013-03-04 12:11:00,59.0,28.0,30.23,ESE,103,4.0,10.0,31,0.00,,,0.00,,2013-03-04 17:11:00,
2013-03-04 12:22:00,60.0,29.0,30.23,NNW,333,4.0,8.0,31,0.00,,,0.00,,2013-03-04 17:22:00,
2013-03-04 12:32:00,60.0,29.0,30.22,NNE,30,4.0,10.0,31,0.00,,,0.00,,2013-03-04 17:32:00,
2013-03-04 12:42:00,60.0,29.0,30.22,NNE,30,4.0,10.0,31,0.00,,,0.00,,2013-03-04 17:42:00,
2013-03-04 12:52:00,60.0,28.0,30.22,NNW,330,3.0,8.0,29,0.00,,,0.00,,2013-03-04 17:52:00,
2013-03-04 13:02:00,62.0,29.0,30.21,NNW,328,4.0,10.0,28,0.00,,,0.00,,2013-03-04 18:02:00,
2013-03-04 13:11:00,62.0,29.0,30.21,NNW,328,4.0,10.0,28,0.00,,,0.00,,2013-03-04 18:11:00,
2013-03-04 13:22:00,63.0,29.0,30.20,NNE,26,2.0,9.0,27,0.00,,,0.00,,2013-03-04 18:22:00,
2013-03-04 13:32:00,62.0,27.0,30.19,NNE,14,2.0,9.0,26,0.00,,,0.00,,2013-03-04 18:32:00,
2013-03-04 13:42:00,62.0,27.0,30.19,NNE,14,2.0,9.0,26,0.00,,,0.00,,2013-03-04 18:42:00,
2013-03-04 13:52:00,65.0,30.0,30.19,NNW,342,1.0,7.0,27,0.00,,,0.00,,2013-03-04 18:52:00,
2013-03-04 14:02:00,64.0,29.0,30.18,West,267,0.0,6.0,27,0.00,,,0.00,,2013-03-04 19:02:00,
2013-03-04 14:12:00,64.0,29.0,30.18,West,267,0.0,6.0,27,0.00,,,0.00,,2013-03-04 19:12:00,
2013-03-04 14:22:00,65.0,29.0,30.17,NE,34,4.0,9.0,26,0.00,,,0.00,,2013-03-04 19:22:00,
2013-03-04 14:32:00,66.0,29.0,30.16,NW,306,4.0,7.0,25,0.00,,,0.00,,2013-03-04 19:32:00,
2013-03-04 14:42:00,66.0,29.0,30.16,NW,306,4.0,7.0,25,0.00,,,0.00,,2013-03-04 19:42:00,
2013-03-04 14:52:00,66.0,29.0,30.16,North,5,2.0,6.0,25,0.00,,,0.00,,2013-03-04 19:52:00,
2013-03-04 15:02:00,68.0,31.0,30.16,NNE,19,0.0,9.0,25,0.00,,,0.00,,2013-03-04 20:02:00,
2013-03-04 15:12:00,68.0,31.0,30.16,NNE,19,0.0,9.0,25,0.00,,,0.00,,2013-03-04 20:12:00,
2013-03-04 15:22:00,68.0,31.0,30.15,North,360,2.0,7.0,25,0.00,,,0.00,,2013-03-04 20:22:00,
2013-03-04 15:32:00,67.0,31.0,30.15,NW,306,4.0,8.0,26,0.00,,,0.00,,2013-03-04 20:32:00,
2013-03-04 15:42:00,67.0,31.0,30.15,NW,306,4.0,8.0,26,0.00,,,0.00,,2013-03-04 20:42:00,
2013-03-04 15:52:00,68.0,31.0,30.15,NNE,19,3.0,8.0,25,0.00,,,0.00,,2013-03-04 20:52:00,
2013-03-04 16:02:00,67.0,30.0,30.15,NE,56,0.0,7.0,25,0.00,,,0.00,,2013-03-04 21:02:00,
2013-03-04 16:12:00,67.0,30.0,30.15,NE,56,0.0,7.0,25,0.00,,,0.00,,2013-03-04 21:12:00,
2013-03-04 16:22:00,67.0,32.0,30.14,WNW,288,0.0,5.0,27,0.00,,,0.00,,2013-03-04 21:22:00,
2013-03-04 16:32:00,67.0,32.0,30.14,WSW,244,1.0,4.0,27,0.00,,,0.00,,2013-03-04 21:32:00,
2013-03-04 16:42:00,67.0,32.0,30.14,WSW,244,1.0,4.0,27,0.00,,,0.00,,2013-03-04 21:42:00,
2013-03-04 16:52:00,67.0,32.0,30.14,NNW,348,1.0,6.0,27,0.00,,,0.00,,2013-03-04 21:52:00,
2013-03-04 17:02:00,67.0,32.0,30.14,ENE,64,1.0,4.0,27,0.00,,,0.00,,2013-03-04 22:02:00,
2013-03-04 17:12:00,67.0,32.0,30.14,ENE,64,1.0,4.0,27,0.00,,,0.00,,2013-03-04 22:12:00,
2013-03-04 17:22:00,67.0,33.0,30.14,East,98,3.0,8.0,28,0.00,,,0.00,,2013-03-04 22:22:00,
2013-03-04 17:32:00,66.0,33.0,30.15,SSE,153,0.0,7.0,29,0.00,,,0.00,,2013-03-04 22:32:00,
2013-03-04 17:42:00,66.0,33.0,30.15,SSE,153,0.0,7.0,29,0.00,,,0.00,,2013-03-04 22:42:00,
2013-03-04 17:52:00,65.0,31.0,30.15,SE,141,0.0,4.0,28,0.00,,,0.00,,2013-03-04 22:52:00,
2013-03-04 18:02:00,64.0,36.0,30.15,SE,143,1.0,4.0,35,0.00,,,0.00,,2013-03-04 23:02:00,
2013-03-04 18:11:00,64.0,36.0,30.15,SE,143,1.0,4.0,35,0.00,,,0.00,,2013-03-04 23:11:00,
2013-03-04 18:22:00,62.0,38.0,30.16,SE,142,0.0,4.0,41,0.00,,,0.00,,2013-03-04 23:22:00,
2013-03-04 18:32:00,60.0,39.0,30.16,ESE,123,0.0,2.0,46,0.00,,,0.00,,2013-03-04 23:32:00,
2013-03-04 18:42:00,60.0,39.0,30.16,ESE,123,0.0,2.0,46,0.00,,,0.00,,2013-03-04 23:42:00,
2013-03-04 18:52:00,58.0,39.0,30.17,ESE,123,0.0,1.0,49,0.00,,,0.00,,2013-03-04 23:52:00,
2013-03-04 19:02:00,55.0,38.0,30.17,ESE,123,0.0,0.0,53,0.00,,,0.00,,2013-03-05 00:02:00,
2013-03-04 19:12:00,55.0,38.0,30.17,ESE,123,0.0,0.0,53,0.00,,,0.00,,2013-03-05 00:12:00,
2013-03-04 19:22:00,53.0,40.0,30.17,ESE,123,0.0,0.0,61,0.00,,,0.00,,2013-03-05 00:22:00,
2013-03-04 19:32:00,51.0,40.0,30.17,ESE,123,0.0,0.0,67,0.00,,,0.00,,2013-03-05 00:32:00,
2013-03-04 19:42:00,51.0,40.0,30.17,ESE,123,0.0,0.0,67,0.00,,,0.00,,2013-03-05 00:42:00,
2013-03-04 19:52:00,50.0,39.0,30.17,ESE,123,0.0,0.0,66,0.00,,,0.00,,2013-03-05 00:52:00,
2013-03-04 20:02:00,49.0,41.0,30.18,WSW,257,3.0,5.0,73,0.00,,,0.00,,2013-03-05 01:02:00,
2013-03-04 20:12:00,49.0,41.0,30.18,WSW,257,3.0,5.0,73,0.00,,,0.00,,2013-03-05 01:12:00,
2013-03-04 20:22:00,52.0,41.0,30.18,WNW,286,2.0,5.0,65,0.00,,,0.00,,2013-03-05 01:22:00,
2013-03-04 20:33:00,51.0,41.0,30.18,West,267,0.0,3.0,68,0.00,,,0.00,,2013-03-05 01:33:00,
2013-03-04 20:42:00,51.0,41.0,30.18,West,267,0.0,3.0,68,0.00,,,0.00,,2013-03-05 01:42:00,
2013-03-04 20:52:00,50.0,41.0,30.18,West,273,0.0,2.0,70,0.00,,,0.00,,2013-03-05 01:52:00,
2013-03-04 21:02:00,49.0,39.0,30.18,NW,323,0.0,2.0,68,0.00,,,0.00,,2013-03-05 02:02:00,
2013-03-04 21:12:00,49.0,39.0,30.18,NW,323,0.0,2.0,68,0.00,,,0.00,,2013-03-05 02:12:00,
2013-03-04 21:22:00,48.0,39.0,30.19,NNW,340,0.0,3.0,70,0.00,,,0.00,,2013-03-05 02:22:00,
2013-03-04 21:32:00,48.0,39.0,30.19,North,360,0.0,4.0,70,0.00,,,0.00,,2013-03-05 02:32:00,
2013-03-04 21:42:00,48.0,39.0,30.19,North,360,0.0,4.0,70,0.00,,,0.00,,2013-03-05 02:42:00,
2013-03-04 21:52:00,48.0,36.0,30.19,NNW,338,1.0,4.0,63,0.00,,,0.00,,2013-03-05 02:52:00,
2013-03-04 22:02:00,48.0,36.0,30.19,North,5,1.0,4.0,63,0.00,,,0.00,,2013-03-05 03:02:00,
2013-03-04 22:12:00,48.0,36.0,30.19,North,5,1.0,4.0,63,0.00,,,0.00,,2013-03-05 03:12:00,
2013-03-04 22:22:00,47.0,35.0,30.19,NNE,15,0.0,4.0,63,0.00,,,0.00,,2013-03-05 03:22:00,
2013-03-04 22:32:00,47.0,35.0,30.20,NNE,13,1.0,4.0,62,0.00,,,0.00,,2013-03-05 03:32:00,
2013-03-04 22:42:00,47.0,35.0,30.20,NNE,13,1.0,4.0,62,0.00,,,0.00,,2013-03-05 03:42:00,
2013-03-04 22:52:00,46.0,35.0,30.20,North,11,0.0,2.0,65,0.00,,,0.00,,2013-03-05 03:52:00,
2013-03-04 23:02:00,44.0,34.0,30.20,East,83,1.0,3.0,69,0.00,,,0.00,,2013-03-05 04:02:00,
2013-03-04 23:12:00,44.0,34.0,30.20,East,83,1.0,3.0,69,0.00,,,0.00,,2013-03-05 04:12:00,
2013-03-04 23:22:00,45.0,36.0,30.20,ENE,61,1.0,4.0,70,0.00,,,0.00,,2013-03-05 04:22:00,
2013-03-04 23:32:00,44.0,35.0,30.20,ENE,63,0.0,2.0,71,0.00,,,0.00,,2013-03-05 04:32:00,
2013-03-04 23:42:00,44.0,35.0,30.20,ENE,63,0.0,2.0,71,0.00,,,0.00,,2013-03-05 04:42:00,
2013-03-04 23:52:00,42.0,35.0,30.20,ENE,63,0.0,1.0,76,0.00,,,0.00,,2013-03-05 04:52:00,